Time;durP1;ratioP1;P1;durP2;ratioP2;P2;SDS_P1;SDS_P2;PMS_P1;PMS_P2;Temp;Humidity;BMP_temperature;BMP_pressure;BME280_temperature;BME280_humidity;BME280_pressure;Samples;Min_cycle;Max_cycle;Signal;HPM_P1;HPM_P2
2022/08/06 00:08:32;;;;;;;5.50;3.70;;;;;;;19.48;96.51;98151.16;18225214;32;20370;-61
2022/08/06 00:18:35;;;;;;;4.10;3.45;;;;;;;19.36;96.04;98146.25;18235203;32;20055;-61
2022/08/06 00:28:38;;;;;;;4.60;3.40;;;;;;;19.12;97.43;98152.94;18236382;32;20173;-61
2022/08/06 00:38:40;;;;;;;3.85;3.08;;;;;;;18.98;97.00;98148.66;18235875;32;20054;-61
2022/08/06 00:48:43;;;;;;;4.47;3.58;;;;;;;18.83;97.70;98139.69;18235558;32;20186;-61
2022/08/06 00:58:55;;;;;;;3.78;3.22;;;;;;;18.72;98.43;98144.62;18235366;32;20058;-61
2022/08/06 01:09:05;;;;;;;5.12;3.28;;;;;;;18.68;99.03;98157.31;18233564;32;20125;-61
2022/08/06 01:19:41;;;;;;;5.00;3.40;;;;;;;18.54;99.41;98154.66;18232005;32;20427;-61
2022/08/06 01:30:18;;;;;;;4.47;2.85;;;;;;;18.50;100.00;98147.34;18233510;32;20377;-61
2022/08/06 01:40:32;;;;;;;5.90;3.20;;;;;;;18.33;100.00;98157.03;18232976;32;20442;-61
2022/08/06 01:50:39;;;;;;;3.05;2.60;;;;;;;18.26;100.00;98168.41;18243984;32;20187;-61
2022/08/06 02:00:47;;;;;;;4.32;2.83;;;;;;;18.20;100.00;98164.19;18294577;32;20103;-61
2022/08/06 02:10:52;;;;;;;3.70;2.50;;;;;;;18.23;100.00;98173.72;18294080;32;20094;-61
2022/08/06 02:20:57;;;;;;;3.03;2.58;;;;;;;18.26;100.00;98173.88;18293677;32;20434;-61
2022/08/06 02:31:19;;;;;;;3.22;2.25;;;;;;;18.28;100.00;98179.87;18284983;32;20433;-61
2022/08/06 02:41:43;;;;;;;4.62;2.17;;;;;;;18.24;100.00;98184.34;18304417;32;20123;-61
2022/08/06 02:52:03;;;;;;;3.05;1.80;;;;;;;18.25;100.00;98185.13;18303456;32;20094;-61
2022/08/06 03:02:28;;;;;;;5.25;2.30;;;;;;;18.20;100.00;98190.72;18303158;32;20438;-61
2022/08/06 03:12:33;;;;;;;2.35;1.90;;;;;;;18.03;100.00;98189.44;18302826;32;20100;-61
2022/08/06 03:22:39;;;;;;;1.95;1.75;;;;;;;17.97;100.00;98167.97;18302179;32;20072;-61
2022/08/06 03:32:47;;;;;;;3.53;2.03;;;;;;;18.07;100.00;98182.22;18302316;32;20065;-61
2022/08/06 03:42:54;;;;;;;3.22;1.65;;;;;;;18.10;100.00;98191.75;18300913;32;20395;-61
2022/08/06 03:53:04;;;;;;;3.00;1.47;;;;;;;18.09;100.00;98193.69;18286998;32;20086;-61
2022/08/06 04:03:13;;;;;;;2.00;1.80;;;;;;;18.09;100.00;98195.63;18300307;32;20051;-61
2022/08/06 04:13:19;;;;;;;2.20;1.55;;;;;;;18.05;99.55;98205.56;18299812;32;20450;-61
2022/08/06 04:23:42;;;;;;;2.10;1.67;;;;;;;18.06;96.93;98213.47;18299423;32;20458;-61
2022/08/06 04:33:48;;;;;;;3.53;1.40;;;;;;;18.02;88.86;98231.63;18298636;32;20065;-61
2022/08/06 04:43:53;;;;;;;2.53;1.70;;;;;;;18.08;86.70;98243.25;18298463;32;20055;-61
2022/08/06 04:53:56;;;;;;;1.85;1.50;;;;;;;18.02;83.59;98260.88;18283080;32;20426;-61
2022/08/06 05:03:59;;;;;;;3.87;1.75;;;;;;;17.94;81.62;98267.91;18283746;32;20058;-61
2022/08/06 05:14:21;;;;;;;2.67;1.50;;;;;;;17.95;83.79;98283.19;18296994;32;20078;-60
2022/08/06 05:24:28;;;;;;;2.47;1.73;;;;;;;17.89;85.85;98287.13;18296859;32;20058;-61
2022/08/06 05:34:51;;;;;;;2.75;1.90;;;;;;;17.87;84.60;98297.53;18296375;32;20129;-61
2022/08/06 05:44:55;;;;;;;3.17;1.50;;;;;;;17.88;84.58;98310.09;18295533;32;20117;-60
2022/08/06 05:55:19;;;;;;;;;;;;;;;17.74;82.75;98321.84;18281777;32;20105;-61
2022/08/06 06:05:40;;;;;;;2.40;1.50;;;;;;;17.69;84.50;98323.84;18280949;32;19965;-61
2022/08/06 06:16:11;;;;;;;4.13;1.90;;;;;;;17.67;83.30;98337.81;18294321;32;20061;-61
2022/08/06 06:26:48;;;;;;;;;;;;;;;17.76;83.27;98346.13;18280442;32;20339;-61
2022/08/06 06:37:09;;;;;;;2.35;1.52;;;;;;;17.74;88.50;98353.84;18293980;32;19995;-61
2022/08/06 06:47:52;;;;;;;2.15;1.37;;;;;;;17.80;87.48;98358.09;18279096;32;20046;-61
2022/08/06 06:58:10;;;;;;;2.97;1.60;;;;;;;17.94;88.61;98355.44;18273561;32;20058;-61
2022/08/06 07:08:16;;;;;;;2.30;1.35;;;;;;;18.27;88.54;98364.41;18292226;32;20105;-61
2022/08/06 07:18:35;;;;;;;1.87;1.62;;;;;;;18.27;88.14;98367.12;18283692;32;20122;-61
2022/08/06 07:28:39;;;;;;;3.17;1.58;;;;;;;18.29;89.70;98369.56;18288903;32;20050;-61
2022/08/06 07:38:46;;;;;;;3.15;1.73;;;;;;;18.31;89.25;98385.69;18301633;32;20153;-61
2022/08/06 07:48:54;;;;;;;2.15;1.45;;;;;;;18.37;87.20;98382.53;18274705;32;20046;-61
2022/08/06 07:58:57;;;;;;;2.47;1.52;;;;;;;18.52;87.33;98397.84;18287139;32;20054;-61
2022/08/06 08:09:07;;;;;;;2.40;1.58;;;;;;;18.58;83.15;98401.31;18299887;32;20101;-61
2022/08/06 08:19:31;;;;;;;2.10;1.58;;;;;;;18.44;77.96;98401.31;18285657;32;20384;-61
2022/08/06 08:29:39;;;;;;;1.95;1.60;;;;;;;18.65;81.02;98399.00;18298915;32;20468;-61
2022/08/06 08:39:56;;;;;;;1.58;1.40;;;;;;;19.09;82.63;98407.66;18298410;32;20123;-61
2022/08/06 08:50:03;;;;;;;4.00;1.42;;;;;;;19.34;80.08;98411.75;18298291;32;20042;-61
2022/08/06 09:00:08;;;;;;;2.70;1.50;;;;;;;19.34;76.83;98408.22;18297658;32;20091;-61
2022/08/06 09:10:12;;;;;;;4.47;1.20;;;;;;;19.36;79.59;98412.25;18297163;32;20117;-61
2022/08/06 09:20:18;;;;;;;2.92;1.92;;;;;;;19.41;77.78;98420.38;18296580;32;20062;-61
2022/08/06 09:30:22;;;;;;;;;;;;;;;19.33;77.28;98434.81;18270173;32;20358;-61
2022/08/06 09:40:32;;;;;;;3.45;2.37;;;;;;;19.24;77.64;98445.72;18295380;32;20269;-61
2022/08/06 09:50:44;;;;;;;2.45;1.80;;;;;;;19.22;76.17;98447.13;18294832;32;20084;-61
2022/08/06 10:00:49;;;;;;;2.67;1.40;;;;;;;19.17;76.79;98455.47;18295148;32;20062;-61
2022/08/06 10:10:53;;;;;;;1.20;1.10;;;;;;;19.35;79.21;98443.56;18294736;32;20043;-61
2022/08/06 10:21:06;;;;;;;2.87;1.58;;;;;;;19.51;76.71;98449.47;18294047;32;20078;-61
2022/08/06 10:31:12;;;;;;;4.35;1.60;;;;;;;19.79;76.79;98457.62;18279874;32;20046;-61
2022/08/06 10:41:23;;;;;;;1.55;1.45;;;;;;;20.03;77.50;98464.75;18293904;32;20079;-61
2022/08/06 10:51:47;;;;;;;2.47;1.90;;;;;;;20.41;77.72;98451.41;18285240;32;20113;-61
2022/08/06 11:02:39;;;;;;;6.87;2.20;;;;;;;20.90;76.85;98454.22;18303709;32;20413;-61
2022/08/06 11:13:07;;;;;;;3.97;2.05;;;;;;;21.17;73.92;98444.06;18043857;32;20063;-61
2022/08/06 11:23:12;;;;;;;2.97;2.22;;;;;;;21.34;72.62;98443.28;18031505;32;20121;-61
2022/08/06 11:33:35;;;;;;;2.22;1.73;;;;;;;21.63;73.94;98450.12;18032922;32;20110;-61
2022/08/06 11:43:54;;;;;;;3.92;1.92;;;;;;;21.74;69.40;98428.59;18191210;32;20101;-61
2022/08/06 11:54:33;;;;;;;2.58;1.67;;;;;;;21.88;70.51;98426.44;18300512;32;20060;-61
2022/08/06 12:04:44;;;;;;;3.65;2.20;;;;;;;22.23;70.12;98412.59;18286172;32;20476;-61
2022/08/06 12:14:50;;;;;;;4.32;2.17;;;;;;;22.34;65.24;98413.09;18299783;32;20054;-61
2022/08/06 12:24:58;;;;;;;2.78;2.08;;;;;;;22.55;66.04;98418.66;18299210;32;20180;-61
2022/08/06 12:35:14;;;;;;;2.33;1.80;;;;;;;22.70;64.99;98409.03;18298943;32;20390;-61
2022/08/06 12:45:23;;;;;;;4.13;2.00;;;;;;;22.89;64.60;98405.03;18298809;32;20055;-61
2022/08/06 12:55:50;;;;;;;4.18;1.80;;;;;;;22.74;59.63;98403.66;18297941;32;20430;-61
2022/08/06 13:06:02;;;;;;;1.75;1.60;;;;;;;23.01;66.08;98392.13;18297366;32;20057;-61
2022/08/06 13:16:11;;;;;;;2.92;2.00;;;;;;;23.40;62.50;98383.75;18296076;32;20084;-61
2022/08/06 13:26:33;;;;;;;3.90;1.83;;;;;;;23.31;61.83;98377.50;18296638;32;20057;-61
2022/08/06 13:36:38;;;;;;;2.20;1.87;;;;;;;23.20;60.33;98371.59;18296644;32;20134;-61
2022/08/06 13:46:51;;;;;;;1.95;1.77;;;;;;;23.25;61.28;98370.59;18283324;32;20062;-61
2022/08/06 13:56:54;;;;;;;2.47;1.60;;;;;;;23.79;60.73;98355.94;18294943;32;20062;-61
2022/08/06 14:07:00;;;;;;;2.80;2.05;;;;;;;24.48;58.63;98357.09;18294619;32;20513;-61
2022/08/06 14:17:04;;;;;;;3.50;1.75;;;;;;;24.81;58.48;98349.84;18294058;32;20054;-61
2022/08/06 14:27:08;;;;;;;3.70;2.08;;;;;;;25.26;56.43;98336.94;18299248;32;20472;-61
2022/08/06 14:37:17;;;;;;;3.97;2.00;;;;;;;25.23;56.21;98330.16;18292057;32;20435;-61
2022/08/06 14:47:25;;;;;;;2.28;1.90;;;;;;;25.34;56.15;98325.75;18291253;32;20074;-61
2022/08/06 14:57:48;;;;;;;2.67;1.70;;;;;;;25.40;56.67;98317.19;18239208;32;20099;-61
2022/08/06 15:08:10;;;;;;;2.37;1.80;;;;;;;25.23;56.16;98318.25;18240225;32;20063;-61
2022/08/06 15:18:15;;;;;;;4.22;1.75;;;;;;;25.00;53.03;98302.22;18239461;32;20095;-61
2022/08/06 15:28:38;;;;;;;2.58;2.10;;;;;;;25.04;52.06;98292.84;18238337;32;20390;-61
2022/08/06 15:38:51;;;;;;;2.90;2.17;;;;;;;25.50;55.04;98280.69;18238619;32;20058;-61
2022/08/06 15:48:55;;;;;;;5.90;2.00;;;;;;;25.55;55.39;98277.66;18237784;32;20073;-61
2022/08/06 15:59:01;;;;;;;2.10;1.50;;;;;;;25.24;50.65;98270.06;18287421;32;20094;-61
2022/08/06 16:09:14;;;;;;;2.47;1.45;;;;;;;24.89;55.28;98265.94;18276210;32;20054;-61
2022/08/06 16:19:31;;;;;;;1.83;1.45;;;;;;;24.98;52.08;98263.00;18299786;32;20390;-61
2022/08/06 16:29:53;;;;;;;2.62;1.55;;;;;;;25.03;54.52;98255.25;18299517;32;20058;-61
2022/08/06 16:39:59;;;;;;;1.55;1.45;;;;;;;24.99;54.50;98264.63;18298569;32;20153;-61
2022/08/06 16:50:10;;;;;;;5.23;1.97;;;;;;;24.68;54.87;98244.78;18298067;32;20062;-61
2022/08/06 17:00:37;;;;;;;2.08;1.48;;;;;;;24.32;54.31;98235.38;18284014;32;20335;-61
2022/08/06 17:10:59;;;;;;;3.05;2.05;;;;;;;24.16;55.16;98232.53;18297603;32;20442;-61
2022/08/06 17:21:05;;;;;;;3.12;1.70;;;;;;;23.91;53.92;98234.47;18283663;32;20062;-61
2022/08/06 17:31:09;;;;;;;2.45;1.70;;;;;;;23.79;56.39;98220.62;18296525;32;20058;-61
2022/08/06 17:41:33;;;;;;;2.40;1.77;;;;;;;23.33;53.96;98221.50;18295784;32;20077;-61
2022/08/06 17:51:49;;;;;;;3.80;2.03;;;;;;;23.16;57.66;98228.00;18294963;32;20442;-61
2022/08/06 18:02:00;;;;;;;2.62;2.03;;;;;;;22.72;56.52;98241.34;18294486;32;20072;-61
2022/08/06 18:12:05;;;;;;;2.50;2.10;;;;;;;22.33;56.30;98252.44;18268043;32;20072;-61
2022/08/06 18:22:12;;;;;;;4.07;2.08;;;;;;;22.04;57.38;98255.22;18294570;32;20088;-61
2022/08/06 18:32:25;;;;;;;2.73;1.90;;;;;;;21.83;57.45;98261.47;18293885;32;20066;-61
2022/08/06 18:42:29;;;;;;;2.12;1.92;;;;;;;21.66;59.70;98265.06;18280117;32;20076;-61
2022/08/06 18:52:34;;;;;;;2.53;2.30;;;;;;;21.50;59.35;98264.75;18267062;32;20076;-61
2022/08/06 19:02:38;;;;;;;2.30;2.10;;;;;;;21.26;59.14;98260.59;18279291;32;20373;-61
2022/08/06 19:12:45;;;;;;;3.30;2.00;;;;;;;21.06;60.03;98256.59;18296000;32;20070;-61
2022/08/06 19:22:53;;;;;;;4.85;2.20;;;;;;;20.90;62.17;98247.22;18302562;32;20446;-61
2022/08/06 19:33:08;;;;;;;3.05;2.70;;;;;;;20.86;61.68;98244.31;18289805;32;20096;-61
2022/08/06 19:43:20;;;;;;;2.53;2.28;;;;;;;20.63;62.93;98249.94;18252848;32;20062;-61
2022/08/06 19:53:44;;;;;;;3.12;2.30;;;;;;;20.43;63.94;98256.88;18301221;32;20046;-61
2022/08/06 20:03:55;;;;;;;2.53;2.33;;;;;;;20.17;64.92;98253.25;18288624;32;20430;-61
2022/08/06 20:14:02;;;;;;;3.60;2.42;;;;;;;19.95;65.65;98258.53;18287040;32;20386;-61
2022/08/06 20:24:05;;;;;;;3.35;2.33;;;;;;;19.76;68.48;98255.19;18285584;32;20109;-61
2022/08/06 20:34:10;;;;;;;3.20;2.33;;;;;;;19.76;69.75;98252.44;18299005;32;20421;-61
2022/08/06 20:44:29;;;;;;;3.53;2.58;;;;;;;19.76;71.51;98263.41;18286967;32;20062;-61
2022/08/06 20:54:31;;;;;;;3.40;2.03;;;;;;;19.79;71.47;98265.53;18297921;32;20403;-61
2022/08/06 21:04:34;;;;;;;3.75;2.62;;;;;;;19.76;73.50;98257.94;18259320;32;20053;-61
2022/08/06 21:14:58;;;;;;;3.20;2.67;;;;;;;19.64;75.15;98262.06;18297295;32;20142;-61
2022/08/06 21:25:04;;;;;;;3.12;2.55;;;;;;;19.48;73.39;98261.66;18296545;32;20110;-61
2022/08/06 21:35:14;;;;;;;2.50;2.30;;;;;;;19.37;72.78;98256.78;18295947;32;20072;-61
2022/08/06 21:45:22;;;;;;;2.50;2.05;;;;;;;19.34;73.47;98257.41;18295580;32;20115;-61
2022/08/06 21:55:25;;;;;;;4.15;2.50;;;;;;;19.08;75.33;98253.34;18295578;32;20050;-61
2022/08/06 22:05:48;;;;;;;;;;;;;;;18.77;76.39;98258.72;18295441;32;20123;-61
2022/08/06 22:16:12;;;;;;;3.35;2.95;;;;;;;18.33;77.93;98238.38;18281131;32;19949;-61
2022/08/06 22:26:14;;;;;;;6.37;4.18;;;;;;;17.92;79.99;98234.53;18280544;32;20054;-61
2022/08/06 22:36:19;;;;;;;5.00;4.00;;;;;;;17.57;80.63;98221.25;18293635;32;20065;-61
2022/08/06 22:46:36;;;;;;;3.97;2.75;;;;;;;17.30;82.00;98210.28;18297093;32;20061;-61
2022/08/06 22:56:39;;;;;;;3.25;2.95;;;;;;;17.02;82.98;98218.37;18289829;32;20046;-61
2022/08/06 23:07:02;;;;;;;8.20;4.12;;;;;;;16.77;84.55;98201.28;18289618;32;20054;-61
2022/08/06 23:17:11;;;;;;;5.00;3.78;;;;;;;16.57;85.66;98203.22;18288885;32;20343;-61
2022/08/06 23:27:13;;;;;;;5.00;3.45;;;;;;;16.37;87.78;98195.34;18302551;32;20070;-61
2022/08/06 23:37:27;;;;;;;6.07;2.87;;;;;;;16.13;89.18;98196.22;18289470;32;20073;-61
2022/08/06 23:47:33;;;;;;;2.40;2.10;;;;;;;15.96;86.92;98193.97;18288338;32;20062;-61
2022/08/06 23:57:56;;;;;;;3.17;2.05;;;;;;;15.83;85.44;98190.06;18300351;32;20072;-61
